Time;durP1;ratioP1;P1;durP2;ratioP2;P2;SDS_P1;SDS_P2;PMS_P1;PMS_P2;Temp;Humidity;BMP_temperature;BMP_pressure;BME280_temperature;BME280_humidity;BME280_pressure;Samples;Min_cycle;Max_cycle;Signal;HPM_P1;HPM_P2
2021/06/27 00:01:12;;;;;;;6.90;4.45;;;;;;;11.18;83.42;90909.91;5012591;28;20391;-85
2021/06/27 00:03:44;;;;;;;5.38;4.43;;;;;;;11.19;83.40;90903.56;4978908;28;20030;-84
2021/06/27 00:06:11;;;;;;;7.53;4.53;;;;;;;11.12;83.43;90900.78;5012714;28;20099;-85
2021/06/27 00:08:40;;;;;;;7.25;4.25;;;;;;;11.08;82.42;90912.97;4979635;28;20021;-85
2021/06/27 00:11:10;;;;;;;5.93;4.30;;;;;;;11.17;83.41;90905.78;4995334;28;20030;-84
2021/06/27 00:13:40;;;;;;;8.45;4.68;;;;;;;11.09;83.72;90898.81;4995699;28;20525;-85
2021/06/27 00:16:07;;;;;;;8.15;4.60;;;;;;;11.00;84.07;90888.53;4993013;28;20411;-85
2021/06/27 00:18:34;;;;;;;6.80;4.65;;;;;;;10.92;83.90;90892.03;4976129;28;20085;-86
2021/06/27 00:21:10;;;;;;;7.45;4.85;;;;;;;10.89;83.88;90893.47;4975809;28;20031;-84
2021/06/27 00:23:42;;;;;;;6.82;4.72;;;;;;;10.88;84.26;90894.53;4980260;28;20030;-85
2021/06/27 00:26:16;;;;;;;6.03;4.35;;;;;;;10.92;84.53;90899.88;4991503;28;20448;-85
2021/06/27 00:28:47;;;;;;;7.75;4.97;;;;;;;10.87;84.88;90902.69;4976567;28;20050;-85
2021/06/27 00:31:19;;;;;;;5.78;4.40;;;;;;;10.87;83.77;90903.44;4959292;28;20031;-86
2021/06/27 00:33:54;;;;;;;9.07;4.82;;;;;;;10.82;83.74;90898.47;4992731;28;20034;-85
2021/06/27 00:36:22;;;;;;;5.05;3.92;;;;;;;10.88;83.13;90897.13;4991469;28;20112;-84
2021/06/27 00:38:48;;;;;;;6.43;4.40;;;;;;;10.96;83.60;90908.53;4959213;28;20121;-85
2021/06/27 00:41:15;;;;;;;5.97;4.45;;;;;;;10.93;83.82;90912.56;4975232;28;20118;-85
2021/06/27 00:43:51;;;;;;;6.18;4.30;;;;;;;10.83;84.60;90917.47;4975586;28;20058;-86
2021/06/27 00:46:20;;;;;;;7.32;4.63;;;;;;;10.78;84.27;90915.84;4960312;28;20117;-84
2021/06/27 00:48:47;;;;;;;7.05;4.80;;;;;;;10.75;85.15;90912.06;4975253;28;20019;-85
2021/06/27 00:51:20;;;;;;;7.18;4.32;;;;;;;10.75;83.78;90916.50;4987613;28;20114;-85
2021/06/27 00:53:46;;;;;;;6.70;3.88;;;;;;;10.70;83.25;90906.28;5012072;28;20515;-85
2021/06/27 00:56:12;;;;;;;5.05;4.00;;;;;;;10.80;83.43;90910.31;4978773;28;20034;-85
2021/06/27 00:58:48;;;;;;;4.97;4.05;;;;;;;10.78;84.18;90913.25;4994708;28;20108;-84
2021/06/27 01:01:15;;;;;;;7.30;4.38;;;;;;;10.77;84.68;90912.47;5012204;28;20025;-84
2021/06/27 01:03:42;;;;;;;6.50;4.95;;;;;;;10.63;84.74;90911.28;4962667;28;20704;-86
2021/06/27 01:06:18;;;;;;;6.50;4.47;;;;;;;10.61;85.07;90911.63;4994711;28;20033;-84
2021/06/27 01:08:52;;;;;;;6.18;4.13;;;;;;;10.63;84.69;90919.88;4995156;28;20444;-85
2021/06/27 01:11:21;;;;;;;8.75;4.40;;;;;;;10.68;84.56;90918.91;4995094;28;20022;-85
2021/06/27 01:13:55;;;;;;;6.40;4.30;;;;;;;10.60;83.98;90898.91;4994771;28;20444;-85
2021/06/27 01:16:22;;;;;;;5.22;4.20;;;;;;;10.57;84.10;90897.00;4959416;28;20022;-87
2021/06/27 01:18:59;;;;;;;5.55;4.20;;;;;;;10.51;85.28;90902.41;4980924;28;20054;-86
2021/06/27 01:21:35;;;;;;;9.63;4.57;;;;;;;10.50;85.46;90898.28;4944088;28;20133;-85
2021/06/27 01:24:03;;;;;;;7.07;4.95;;;;;;;10.56;87.16;90887.63;4959716;28;20026;-85
2021/06/27 01:26:30;;;;;;;5.60;4.68;;;;;;;10.56;85.02;90879.81;4974637;28;20037;-85
2021/06/27 01:29:06;;;;;;;5.70;4.43;;;;;;;10.60;84.93;90884.06;4981986;28;20026;-85
2021/06/27 01:31:35;;;;;;;6.18;4.32;;;;;;;10.72;84.67;90888.50;4962549;28;20026;-85
2021/06/27 01:34:08;;;;;;;8.75;4.72;;;;;;;10.72;84.95;90889.25;4970440;28;20585;-85
2021/06/27 01:36:40;;;;;;;6.40;4.28;;;;;;;10.59;85.65;90885.13;5015784;28;20025;-85
2021/06/27 01:39:06;;;;;;;5.38;4.10;;;;;;;10.60;85.42;90891.09;5015557;28;20032;-85
2021/06/27 01:41:33;;;;;;;5.93;4.90;;;;;;;10.51;86.05;90894.59;4997969;28;20025;-85
2021/06/27 01:44:01;;;;;;;5.47;4.32;;;;;;;10.64;85.47;90884.16;4997739;28;20026;-85
2021/06/27 01:46:34;;;;;;;6.75;4.78;;;;;;;10.67;85.37;90889.47;4988738;28;20049;-85
2021/06/27 01:49:00;;;;;;;6.57;4.65;;;;;;;10.59;85.19;90879.16;4980074;28;20026;-85
2021/06/27 01:51:27;;;;;;;7.38;5.05;;;;;;;10.55;85.58;90873.09;4961782;28;20030;-86
2021/06/27 01:54:02;;;;;;;6.60;4.30;;;;;;;10.56;85.53;90874.59;4994251;28;20443;-85
2021/06/27 01:56:29;;;;;;;8.05;4.60;;;;;;;10.47;85.06;90872.88;4977817;28;20042;-85
2021/06/27 01:58:57;;;;;;;7.68;4.57;;;;;;;10.48;85.99;90873.66;4977883;28;20042;-85
2021/06/27 02:01:26;;;;;;;5.65;4.30;;;;;;;10.57;86.34;90876.16;4997361;28;20045;-88
2021/06/27 02:04:03;;;;;;;8.10;5.05;;;;;;;10.57;86.35;90876.16;5004004;28;20061;-83
2021/06/27 02:06:29;;;;;;;6.28;4.95;;;;;;;10.52;86.65;90871.91;4983696;28;20038;-85
2021/06/27 02:09:03;;;;;;;6.00;4.53;;;;;;;10.61;86.49;90872.56;4981825;28;20026;-85
2021/06/27 02:11:34;;;;;;;9.00;4.35;;;;;;;10.69;85.00;90865.69;4978712;28;20551;-84
2021/06/27 02:14:00;;;;;;;5.00;4.07;;;;;;;10.61;84.42;90858.75;4996457;28;20419;-85
2021/06/27 02:16:32;;;;;;;5.32;3.92;;;;;;;10.47;83.88;90857.25;4980692;28;20123;-86
2021/06/27 02:19:03;;;;;;;6.80;3.72;;;;;;;10.53;84.05;90855.97;4981623;28;20053;-85
2021/06/27 02:21:32;;;;;;;6.88;4.68;;;;;;;10.46;86.46;90850.53;4965376;28;20022;-85
2021/06/27 02:24:02;;;;;;;6.90;4.38;;;;;;;10.48;86.65;90848.34;5093984;23;20046;-84
2021/06/27 02:26:30;;;;;;;8.70;4.13;;;;;;;10.47;85.31;90841.63;4999037;28;20543;-85
2021/06/27 02:28:58;;;;;;;6.03;4.50;;;;;;;10.44;84.76;90831.84;5018738;28;20025;-85
2021/06/27 02:31:36;;;;;;;6.25;4.25;;;;;;;10.35;85.73;90827.84;5001810;28;20021;-85
2021/06/27 02:34:03;;;;;;;7.07;4.32;;;;;;;10.39;85.71;90820.88;5035543;28;20068;-85
2021/06/27 02:36:29;;;;;;;5.47;4.22;;;;;;;10.34;85.44;90819.28;5001641;28;20049;-85
2021/06/27 02:39:02;;;;;;;5.90;4.47;;;;;;;10.38;85.72;90817.53;4972808;28;20492;-86
2021/06/27 02:41:34;;;;;;;6.35;4.57;;;;;;;10.33;86.40;90817.78;4986615;28;20034;-85
2021/06/27 02:44:00;;;;;;;6.75;4.93;;;;;;;10.50;87.13;90821.97;5001711;28;20026;-87
2021/06/27 02:46:33;;;;;;;6.43;4.30;;;;;;;10.47;87.26;90830.44;5002704;28;20499;-86
2021/06/27 02:48:59;;;;;;;7.78;4.72;;;;;;;10.51;87.28;90845.09;4982405;28;20022;-85
2021/06/27 02:51:29;;;;;;;5.78;4.40;;;;;;;10.51;86.87;90839.88;4998964;28;20248;-86
2021/06/27 02:53:58;;;;;;;6.05;4.80;;;;;;;10.43;87.02;90835.56;4966238;28;20253;-85
2021/06/27 02:56:26;;;;;;;6.63;4.72;;;;;;;10.45;86.54;90838.56;4981571;28;20027;-85
2021/06/27 02:58:56;;;;;;;7.68;4.57;;;;;;;10.42;87.09;90839.22;4965764;28;20025;-85
2021/06/27 03:01:25;;;;;;;6.50;4.47;;;;;;;10.42;87.20;90833.25;4983385;28;20057;-86
2021/06/27 03:03:53;;;;;;;6.13;4.55;;;;;;;10.40;86.45;90832.84;5019542;28;20049;-85
2021/06/27 03:06:19;;;;;;;8.68;4.97;;;;;;;10.59;86.44;90840.09;4985949;28;20025;-85
2021/06/27 03:08:45;;;;;;;8.20;4.57;;;;;;;10.52;86.67;90838.78;4997705;28;20026;-85
2021/06/27 03:11:17;;;;;;;6.63;4.97;;;;;;;10.43;86.52;90840.78;4995780;28;20116;-87
2021/06/27 03:13:45;;;;;;;5.78;4.43;;;;;;;10.39;87.47;90839.13;4996840;28;20113;-86
2021/06/27 03:16:11;;;;;;;7.70;5.00;;;;;;;10.35;88.65;90831.22;4980213;28;20026;-85
2021/06/27 03:18:42;;;;;;;6.78;4.60;;;;;;;10.39;87.93;90832.09;4996135;28;20026;-85
2021/06/27 03:21:09;;;;;;;5.20;4.13;;;;;;;10.39;86.98;90834.69;4980143;28;20030;-83
2021/06/27 03:23:37;;;;;;;5.82;4.53;;;;;;;10.48;87.26;90835.31;5013325;28;20517;-85
2021/06/27 03:26:07;;;;;;;6.88;5.32;;;;;;;10.45;87.69;90838.56;4992784;28;20380;-85
2021/06/27 03:28:38;;;;;;;7.75;5.30;;;;;;;10.41;88.25;90837.72;5016071;28;20483;-84
2021/06/27 03:31:04;;;;;;;7.55;5.35;;;;;;;10.42;87.95;90838.47;5014982;28;20487;-85
2021/06/27 03:33:31;;;;;;;6.25;4.78;;;;;;;10.50;87.30;90835.75;4984227;28;20041;-85
2021/06/27 03:36:04;;;;;;;7.97;4.75;;;;;;;10.51;86.76;90834.66;4995362;28;20030;-85
2021/06/27 03:38:48;;;;;;;5.80;4.55;;;;;;;10.52;86.34;90840.63;4996342;28;20673;-84
2021/06/27 03:41:23;;;;;;;6.45;4.75;;;;;;;10.42;86.86;90828.81;4981580;28;20026;-85
2021/06/27 03:43:50;;;;;;;8.45;5.20;;;;;;;10.35;86.71;90833.81;4979516;28;20038;-85
2021/06/27 03:46:22;;;;;;;7.10;4.53;;;;;;;10.32;86.32;90838.91;4979497;28;20034;-85
2021/06/27 03:48:52;;;;;;;6.13;4.80;;;;;;;10.26;86.16;90830.59;4994687;28;20061;-85
2021/06/27 03:51:18;;;;;;;6.65;4.55;;;;;;;10.21;85.91;90823.72;5011116;28;20052;-85
2021/06/27 03:53:45;;;;;;;5.43;4.40;;;;;;;10.16;85.74;90817.97;4964700;28;20116;-85
2021/06/27 03:56:18;;;;;;;6.85;4.30;;;;;;;10.14;85.52;90817.53;4983650;28;20480;-86
2021/06/27 03:58:46;;;;;;;7.45;4.32;;;;;;;10.17;85.61;90822.84;4984193;28;20029;-86
2021/06/27 04:01:18;;;;;;;5.43;4.00;;;;;;;10.12;85.74;90815.25;4967430;28;20022;-85
2021/06/27 04:03:53;;;;;;;6.13;4.30;;;;;;;10.13;86.29;90819.38;4998496;28;20036;-86
2021/06/27 04:06:20;;;;;;;6.80;4.65;;;;;;;10.23;87.27;90818.19;5001224;28;20021;-85
2021/06/27 04:08:47;;;;;;;7.47;4.80;;;;;;;10.27;86.56;90826.88;4999318;28;20026;-85
2021/06/27 04:11:22;;;;;;;5.25;3.83;;;;;;;10.23;86.20;90818.19;5016146;28;20037;-87
2021/06/27 04:13:55;;;;;;;7.22;4.22;;;;;;;10.27;85.69;90826.88;4984180;28;20022;-86
2021/06/27 04:16:29;;;;;;;6.72;4.60;;;;;;;10.26;85.60;90815.72;5000033;28;20160;-86
2021/06/27 04:19:03;;;;;;;5.38;4.00;;;;;;;10.37;84.98;90820.47;5000895;28;20037;-86
2021/06/27 04:21:30;;;;;;;8.73;4.50;;;;;;;10.27;85.59;90816.47;4984191;28;20069;-87
2021/06/27 04:23:57;;;;;;;5.55;4.55;;;;;;;10.37;86.39;90817.88;4998089;28;20033;-85
2021/06/27 04:26:37;;;;;;;5.60;3.80;;;;;;;10.50;85.41;90817.53;4998431;28;20033;-86
2021/06/27 04:29:05;;;;;;;7.03;4.95;;;;;;;10.48;86.05;90816.31;4999012;28;20036;-84
2021/06/27 04:31:32;;;;;;;6.78;4.55;;;;;;;10.53;86.31;90811.66;4998790;28;20026;-83
2021/06/27 04:34:05;;;;;;;7.57;4.68;;;;;;;10.57;86.57;90809.16;4998037;28;20079;-85
2021/06/27 04:36:38;;;;;;;6.97;4.82;;;;;;;10.80;86.07;90798.97;5000001;28;20029;-85
2021/06/27 04:39:09;;;;;;;6.13;4.05;;;;;;;10.90;85.67;90808.94;4982227;28;20022;-82
2021/06/27 04:41:38;;;;;;;5.78;4.38;;;;;;;10.85;86.04;90803.97;4999008;28;20711;-86
2021/06/27 04:44:10;;;;;;;6.22;4.72;;;;;;;10.88;86.00;90808.50;5016560;28;20026;-86
2021/06/27 04:46:38;;;;;;;7.05;4.18;;;;;;;10.94;85.50;90804.56;5000660;28;20041;-86
2021/06/27 04:49:05;;;;;;;6.40;4.63;;;;;;;10.96;85.50;90810.22;5000054;28;20077;-84
2021/06/27 04:51:37;;;;;;;9.38;5.13;;;;;;;10.92;85.59;90798.94;5013321;28;20026;-85
2021/06/27 04:54:05;;;;;;;5.53;4.70;;;;;;;10.98;85.91;90800.19;4997729;28;20022;-86
2021/06/27 04:56:35;;;;;;;6.35;4.97;;;;;;;10.86;86.54;90792.44;4994618;28;20399;-85
2021/06/27 04:59:09;;;;;;;7.03;5.15;;;;;;;10.84;86.60;90797.22;4994721;28;20026;-84
2021/06/27 05:01:37;;;;;;;8.98;5.78;;;;;;;10.92;87.52;90801.56;4981452;28;20026;-86
2021/06/27 05:04:04;;;;;;;7.13;5.80;;;;;;;11.00;88.11;90805.84;4998245;28;20034;-85
2021/06/27 05:06:42;;;;;;;7.65;5.72;;;;;;;11.15;87.30;90812.19;4998594;28;20032;-86
2021/06/27 05:09:10;;;;;;;7.75;5.50;;;;;;;11.21;87.11;90807.50;4983022;28;20101;-84
2021/06/27 05:11:37;;;;;;;6.55;5.25;;;;;;;11.20;87.01;90804.16;4981425;28;20491;-85
2021/06/27 05:14:07;;;;;;;9.48;5.70;;;;;;;11.25;87.24;90803.13;4997691;28;20036;-85
2021/06/27 05:16:42;;;;;;;7.53;5.47;;;;;;;11.36;87.24;90804.16;4981751;28;20029;-85
2021/06/27 05:19:09;;;;;;;8.65;5.53;;;;;;;11.39;87.78;90800.88;4997552;28;20021;-86
2021/06/27 05:21:36;;;;;;;6.45;4.97;;;;;;;11.56;87.32;90805.03;4996655;28;20032;-84
2021/06/27 05:24:10;;;;;;;8.27;5.40;;;;;;;11.60;87.11;90808.47;4967497;28;20081;-85
2021/06/27 05:26:38;;;;;;;7.43;5.25;;;;;;;11.64;86.98;90811.19;5003190;28;20021;-85
2021/06/27 05:29:06;;;;;;;9.75;5.28;;;;;;;11.69;86.09;90803.09;5002578;28;20033;-85
2021/06/27 05:31:43;;;;;;;6.55;4.82;;;;;;;11.65;85.01;90818.66;5000728;28;20029;-85
2021/06/27 05:34:12;;;;;;;5.07;4.35;;;;;;;11.66;84.96;90809.75;4985230;28;20419;-85
2021/06/27 05:36:42;;;;;;;6.57;5.10;;;;;;;11.80;84.85;90806.72;5018527;28;20040;-86
2021/06/27 05:39:09;;;;;;;8.57;4.97;;;;;;;11.91;84.39;90810.38;5016635;28;20037;-85
2021/06/27 05:41:43;;;;;;;7.28;5.60;;;;;;;11.99;84.57;90797.47;4981198;28;20026;-85
2021/06/27 05:44:10;;;;;;;5.97;4.88;;;;;;;12.21;85.06;90809.91;5014999;28;20022;-84
2021/06/27 05:46:42;;;;;;;8.70;5.93;;;;;;;12.52;87.49;90811.72;4981306;28;20042;-86
2021/06/27 05:49:09;;;;;;;6.80;5.80;;;;;;;12.71;88.49;90805.72;4997572;28;20541;-85
2021/06/27 05:51:45;;;;;;;11.55;6.88;;;;;;;13.04;88.49;90804.50;4981445;28;20508;-85
2021/06/27 05:54:14;;;;;;;9.70;6.50;;;;;;;13.30;87.16;90807.28;4999776;28;20033;-85
2021/06/27 05:56:41;;;;;;;7.57;5.93;;;;;;;13.43;85.51;90791.41;4982664;28;20022;-85
2021/06/27 05:59:08;;;;;;;8.93;6.32;;;;;;;13.56;85.86;90792.75;4983370;28;20030;-87
2021/06/27 06:01:38;;;;;;;6.30;5.45;;;;;;;13.70;85.92;90790.38;4999484;28;20084;-86
2021/06/27 06:04:05;;;;;;;7.97;6.38;;;;;;;13.86;86.51;90795.50;4982510;28;20053;-86
2021/06/27 06:06:32;;;;;;;7.07;5.38;;;;;;;14.00;85.78;90794.97;5016312;28;20411;-87
2021/06/27 06:09:07;;;;;;;6.60;5.22;;;;;;;14.07;85.04;90789.84;4982534;28;20018;-86
2021/06/27 06:11:32;;;;;;;9.60;6.22;;;;;;;14.34;84.71;90790.59;4983237;28;20022;-87
2021/06/27 06:14:09;;;;;;;7.65;6.35;;;;;;;14.51;86.17;90781.50;4997241;28;20492;-86
2021/06/27 06:16:38;;;;;;;10.43;7.13;;;;;;;14.81;83.16;90790.13;4998819;28;20026;-87
2021/06/27 06:19:09;;;;;;;10.13;7.18;;;;;;;15.06;83.49;90789.69;4966818;28;20436;-84
2021/06/27 06:21:42;;;;;;;8.52;6.63;;;;;;;15.22;83.34;90782.34;5015359;28;20018;-87
2021/06/27 06:24:09;;;;;;;8.77;6.85;;;;;;;15.43;79.73;90775.81;4982040;28;20036;-86
2021/06/27 06:26:43;;;;;;;9.60;6.60;;;;;;;15.51;78.84;90780.78;4981931;28;20038;-86
2021/06/27 06:29:13;;;;;;;8.07;6.40;;;;;;;15.63;78.51;90776.38;4997220;28;20021;-86
2021/06/27 06:31:50;;;;;;;7.72;6.47;;;;;;;15.69;78.82;90773.09;4996581;28;20026;-87
2021/06/27 06:34:17;;;;;;;7.80;6.70;;;;;;;15.73;77.95;90779.13;4997494;28;20385;-86
2021/06/27 06:36:48;;;;;;;9.25;6.63;;;;;;;15.82;77.65;90784.06;4996325;28;20029;-87
2021/06/27 06:39:18;;;;;;;8.60;6.63;;;;;;;15.95;77.73;90782.69;4980944;28;20541;-86
2021/06/27 06:41:44;;;;;;;8.63;6.43;;;;;;;16.03;77.00;90775.59;4991186;28;20048;-86
2021/06/27 06:44:12;;;;;;;7.25;6.10;;;;;;;16.25;78.35;90784.41;4979824;28;20052;-86
2021/06/27 06:46:43;;;;;;;9.15;6.20;;;;;;;16.29;76.34;90781.78;4976926;28;20112;-86
2021/06/27 06:49:15;;;;;;;7.30;6.20;;;;;;;16.41;77.60;90787.53;4976790;28;20069;-86
2021/06/27 06:51:44;;;;;;;11.13;6.40;;;;;;;16.54;77.44;90797.72;4976856;28;20050;-87
2021/06/27 06:54:11;;;;;;;7.25;5.70;;;;;;;16.57;78.67;90792.50;5008061;28;20492;-86
2021/06/27 06:56:40;;;;;;;8.05;5.93;;;;;;;16.55;78.45;90794.75;4981726;28;20527;-82
2021/06/27 06:59:11;;;;;;;6.03;5.18;;;;;;;16.79;76.96;90797.91;4997295;28;20036;-86
2021/06/27 07:01:40;;;;;;;8.70;5.40;;;;;;;16.87;74.84;90794.19;4996029;28;20080;-86
2021/06/27 07:04:06;;;;;;;7.88;5.93;;;;;;;16.94;75.93;90794.22;4980916;28;20025;-87
2021/06/27 07:06:37;;;;;;;8.02;6.00;;;;;;;17.10;77.78;90791.28;5014017;28;20085;-86
2021/06/27 07:09:06;;;;;;;6.90;5.20;;;;;;;17.19;76.64;90787.19;4997139;28;20104;-86
2021/06/27 07:11:33;;;;;;;7.53;5.40;;;;;;;17.37;76.08;90789.13;4980179;28;20037;-86
2021/06/27 07:14:06;;;;;;;5.40;4.78;;;;;;;17.34;73.88;90774.06;5013469;28;20048;-86
2021/06/27 07:16:34;;;;;;;5.75;5.15;;;;;;;17.51;74.14;90783.13;4980808;28;20022;-86
2021/06/27 07:19:03;;;;;;;7.57;5.65;;;;;;;17.57;73.46;90782.41;4979980;28;20045;-86
2021/06/27 07:21:37;;;;;;;8.05;5.18;;;;;;;17.62;73.58;90784.66;5013419;28;20430;-86
2021/06/27 07:24:04;;;;;;;6.05;5.05;;;;;;;17.73;70.99;90786.56;4979517;28;20022;-86
2021/06/27 07:26:34;;;;;;;6.65;5.05;;;;;;;17.86;70.72;90785.09;4976198;28;20042;-86
2021/06/27 07:29:02;;;;;;;6.53;5.45;;;;;;;17.99;70.69;90780.22;4961050;28;20030;-86
2021/06/27 07:31:35;;;;;;;5.75;4.72;;;;;;;18.05;71.37;90783.97;4993577;28;20400;-86
2021/06/27 07:34:02;;;;;;;8.25;5.50;;;;;;;18.11;69.38;90782.47;4976946;28;20026;-86
2021/06/27 07:36:43;;;;;;;6.18;5.20;;;;;;;18.18;70.16;90779.09;4994946;28;20030;-86
2021/06/27 07:39:08;;;;;;;10.00;5.38;;;;;;;18.31;70.54;90770.41;4996832;28;20029;-88
2021/06/27 07:41:35;;;;;;;6.25;5.35;;;;;;;18.39;70.01;90773.78;4995549;28;20034;-87
2021/06/27 07:44:12;;;;;;;6.00;5.03;;;;;;;18.44;70.34;90777.94;4998946;28;20109;-85
2021/06/27 07:46:39;;;;;;;5.85;5.00;;;;;;;18.65;72.66;90769.97;4980005;28;20442;-88
2021/06/27 07:49:07;;;;;;;4.82;3.83;;;;;;;18.75;65.05;90771.13;5012797;28;20022;-86
2021/06/27 07:51:35;;;;;;;5.82;3.90;;;;;;;18.77;67.87;90763.59;5001871;28;20048;-87
2021/06/27 07:54:02;;;;;;;4.25;3.80;;;;;;;18.89;66.20;90762.41;5014466;28;20033;-86
2021/06/27 07:56:29;;;;;;;5.30;3.80;;;;;;;18.97;64.29;90764.63;5010806;28;20032;-86
2021/06/27 07:59:06;;;;;;;5.97;3.90;;;;;;;19.24;64.43;90766.81;5012397;28;20110;-87
2021/06/27 08:01:33;;;;;;;5.25;4.03;;;;;;;19.34;61.55;90763.38;5032660;28;20194;-86
2021/06/27 08:04:09;;;;;;;5.38;3.47;;;;;;;19.47;64.87;90764.44;5016445;28;20060;-86
2021/06/27 08:06:36;;;;;;;5.28;3.15;;;;;;;19.57;62.07;90760.97;5016431;28;20044;-87
2021/06/27 08:09:10;;;;;;;4.25;3.15;;;;;;;19.60;60.70;90764.72;5015927;28;20028;-86
2021/06/27 08:11:35;;;;;;;5.65;3.70;;;;;;;19.72;61.03;90766.22;5020813;28;20026;-86
2021/06/27 08:14:01;;;;;;;4.63;3.28;;;;;;;19.59;56.48;90757.94;4980366;28;20045;-87
2021/06/27 08:16:26;;;;;;;3.85;3.45;;;;;;;19.69;59.14;90761.69;4982874;28;20017;-87
2021/06/27 08:18:59;;;;;;;4.47;3.58;;;;;;;19.88;61.40;90755.88;5018093;28;20038;-86
2021/06/27 08:21:25;;;;;;;3.88;2.95;;;;;;;19.98;59.89;90768.28;4992592;28;20030;-87
2021/06/27 08:23:59;;;;;;;4.25;3.35;;;;;;;19.97;58.16;90772.09;5067156;23;20137;-89
2021/06/27 08:26:25;;;;;;;4.03;3.53;;;;;;;19.98;59.00;90765.66;4966095;28;20112;-88
2021/06/27 08:29:00;;;;;;;4.07;3.17;;;;;;;19.99;54.48;90758.47;4995198;28;20017;-88
2021/06/27 08:31:36;;;;;;;5.30;3.42;;;;;;;20.09;59.54;90762.91;4979364;28;20026;-88
2021/06/27 08:34:04;;;;;;;4.32;3.47;;;;;;;20.38;59.95;90758.13;4980118;28;20026;-89
2021/06/27 08:36:36;;;;;;;6.15;3.40;;;;;;;20.32;55.25;90759.72;4995146;28;20109;-88
2021/06/27 08:39:09;;;;;;;4.18;3.33;;;;;;;20.52;53.85;90749.34;4979538;28;20024;-88
2021/06/27 08:41:36;;;;;;;3.43;3.13;;;;;;;20.53;54.53;90753.53;4979675;28;20037;-89
2021/06/27 08:44:14;;;;;;;4.88;2.90;;;;;;;20.84;52.28;90751.66;4978637;28;20267;-89
2021/06/27 08:46:49;;;;;;;3.22;2.78;;;;;;;20.94;55.15;90752.72;4963608;28;20022;-89
2021/06/27 08:49:19;;;;;;;3.30;2.78;;;;;;;20.77;48.33;90735.84;4980213;28;20042;-88
2021/06/27 08:51:48;;;;;;;4.78;3.30;;;;;;;20.89;49.71;90732.72;4985833;28;20117;-89
2021/06/27 08:54:20;;;;;;;3.35;3.03;;;;;;;21.04;47.12;90740.50;4979009;28;20022;-88
2021/06/27 08:56:48;;;;;;;3.70;2.65;;;;;;;20.93;47.58;90733.44;4995493;28;20026;-88
2021/06/27 08:59:17;;;;;;;3.78;3.15;;;;;;;20.89;46.79;90740.66;4962422;28;20427;-88
2021/06/27 09:01:45;;;;;;;4.88;2.78;;;;;;;21.04;50.39;90748.44;4979180;28;20522;-88
2021/06/27 09:04:18;;;;;;;3.80;2.83;;;;;;;21.13;45.35;90751.34;4995022;28;20030;-88
2021/06/27 09:06:49;;;;;;;3.33;2.50;;;;;;;21.27;47.32;90748.53;4963911;28;20040;-87
2021/06/27 09:09:17;;;;;;;3.70;2.85;;;;;;;21.45;49.50;90751.75;4978800;28;20102;-86
2021/06/27 09:12:07;;;;;;;2.70;2.33;;;;;;;21.57;44.85;90750.47;5012134;28;20057;-88
2021/06/27 09:14:42;;;;;;;3.70;2.40;;;;;;;21.64;45.07;90753.00;4995257;28;20097;-87
2021/06/27 09:17:07;;;;;;;;;;;;;;;21.63;45.08;90756.06;5013133;28;20026;-87
2021/06/27 09:19:56;;;;;;;3.72;2.35;;;;;;;21.79;44.77;90753.56;5015263;28;19917;-88
2021/06/27 09:22:40;;;;;;;3.58;2.40;;;;;;;22.02;45.46;90757.44;5011128;28;20369;-88
2021/06/27 09:25:20;;;;;;;3.83;2.30;;;;;;;21.98;42.30;90764.66;4964911;28;20018;-87
2021/06/27 09:28:00;;;;;;;5.07;2.30;;;;;;;21.87;40.87;90759.50;4992654;28;20486;-88
2021/06/27 09:30:33;;;;;;;2.97;2.20;;;;;;;21.72;41.65;90764.28;4998977;28;20017;-89
2021/06/27 09:33:09;;;;;;;6.20;2.60;;;;;;;21.74;44.07;90761.97;5000406;28;20025;-90
2021/06/27 09:35:51;;;;;;;2.80;2.33;;;;;;;22.08;47.35;90759.19;5000701;28;20022;-89
2021/06/27 09:38:39;;;;;;;2.90;2.30;;;;;;;22.56;46.80;90760.75;5031313;28;20033;-88
2021/06/27 09:41:14;;;;;;;3.47;2.58;;;;;;;22.66;42.94;90759.81;5020117;28;20571;-88
2021/06/27 09:43:48;;;;;;;3.05;2.50;;;;;;;22.48;41.90;90754.06;5013667;28;20029;-87
2021/06/27 09:46:15;;;;;;;3.05;2.60;;;;;;;22.31;42.52;90750.53;5001992;28;20026;-88
2021/06/27 09:48:55;;;;;;;3.00;2.63;;;;;;;22.18;47.61;90747.69;4979089;28;20029;-88
2021/06/27 09:51:28;;;;;;;3.25;2.50;;;;;;;22.13;48.23;90745.50;5000245;28;20032;-88
2021/06/27 09:53:55;;;;;;;5.07;2.72;;;;;;;22.07;46.21;90746.34;4999983;28;20030;-88
2021/06/27 09:56:23;;;;;;;3.67;2.28;;;;;;;22.19;46.99;90733.28;4968984;28;20459;-88
2021/06/27 09:58:56;;;;;;;3.03;2.50;;;;;;;22.52;49.30;90740.72;4987164;28;20121;-88
2021/06/27 10:01:23;;;;;;;2.80;2.50;;;;;;;22.73;50.11;90748.31;4980194;28;20022;-87
2021/06/27 10:03:54;;;;;;;4.15;2.80;;;;;;;22.79;47.84;90738.72;4980496;28;20499;-88
2021/06/27 10:06:22;;;;;;;4.05;3.00;;;;;;;23.13;51.45;90756.34;4969401;28;20053;-87
2021/06/27 10:08:47;;;;;;;3.60;2.92;;;;;;;22.83;46.54;90743.97;4993014;28;20438;-87
2021/06/27 10:11:25;;;;;;;3.83;3.00;;;;;;;22.86;47.88;90748.47;4999123;28;20026;-89
2021/06/27 10:13:54;;;;;;;3.15;2.85;;;;;;;23.04;49.94;90750.81;4980189;28;20048;-88
2021/06/27 10:16:29;;;;;;;3.85;3.05;;;;;;;22.96;49.01;90741.47;4980054;28;20387;-88
2021/06/27 10:18:57;;;;;;;3.80;3.40;;;;;;;23.09;50.14;90743.13;4979746;28;20104;-89
2021/06/27 10:21:28;;;;;;;3.85;3.40;;;;;;;23.03;47.60;90744.00;4973132;28;20033;-89
2021/06/27 10:23:54;;;;;;;4.43;3.55;;;;;;;23.19;48.47;90746.00;4983595;28;20029;-88
2021/06/27 10:26:22;;;;;;;8.07;3.63;;;;;;;23.23;48.86;90741.34;4984432;28;20045;-88
2021/06/27 10:28:49;;;;;;;4.68;3.35;;;;;;;23.25;48.00;90733.69;4980122;28;20032;-88
2021/06/27 10:31:22;;;;;;;3.40;3.10;;;;;;;23.38;47.77;90737.97;4981999;28;20105;-88
2021/06/27 10:33:49;;;;;;;3.93;2.93;;;;;;;23.50;48.05;90741.16;4990366;28;20030;-92
2021/06/27 10:36:31;;;;;;;3.60;3.00;;;;;;;23.62;47.20;90740.56;5006190;28;20740;-87
2021/06/27 10:39:00;;;;;;;3.85;3.30;;;;;;;23.68;46.87;90730.22;4988486;28;20026;-88
2021/06/27 10:41:49;;;;;;;4.53;3.30;;;;;;;23.70;46.86;90741.91;5000432;28;20078;-88
2021/06/27 10:44:23;;;;;;;4.18;3.00;;;;;;;23.74;44.95;90742.59;5029342;28;20104;-88
2021/06/27 10:46:53;;;;;;;;;;;;;;;23.82;45.75;90749.25;5015418;28;20031;-88
2021/06/27 10:49:33;;;;;;;3.38;3.03;;;;;;;23.67;47.00;90744.63;5008320;28;20293;-87
2021/06/27 10:52:03;;;;;;;5.03;3.45;;;;;;;23.63;47.66;90736.72;5032053;28;20029;-87
2021/06/27 10:54:34;;;;;;;4.50;3.50;;;;;;;23.40;47.97;90742.16;4981772;28;20067;-88
2021/06/27 10:57:04;;;;;;;4.30;3.50;;;;;;;23.43;48.10;90743.97;5014260;28;20112;-87
2021/06/27 10:59:39;;;;;;;4.28;3.45;;;;;;;23.46;48.16;90745.81;5008499;28;20057;-89
2021/06/27 11:02:16;;;;;;;3.75;3.30;;;;;;;23.60;46.85;90746.28;5009454;28;20033;-87
2021/06/27 11:04:41;;;;;;;3.85;3.45;;;;;;;23.67;47.28;90742.75;5032129;28;20028;-88
2021/06/27 11:07:36;;;;;;;6.03;3.38;;;;;;;23.45;47.70;90744.31;4994494;28;20026;-87
2021/06/27 11:10:20;;;;;;;3.70;3.38;;;;;;;23.41;48.98;90741.00;4994647;28;20037;-87
2021/06/27 11:12:57;;;;;;;3.95;3.55;;;;;;;23.59;47.92;90742.13;4995006;28;20692;-87
2021/06/27 11:15:31;;;;;;;7.20;3.50;;;;;;;24.01;50.00;90736.31;4995422;28;20037;-87
2021/06/27 11:18:09;;;;;;;5.50;3.60;;;;;;;24.08;48.29;90738.81;4995848;28;20026;-88
2021/06/27 11:20:49;;;;;;;4.47;3.70;;;;;;;23.92;47.32;90736.13;4979465;28;20072;-87
2021/06/27 11:23:16;;;;;;;3.95;3.20;;;;;;;24.09;47.99;90733.06;4994506;28;20022;-89
2021/06/27 11:25:46;;;;;;;5.25;3.60;;;;;;;24.39;47.73;90735.81;5004631;28;20398;-88
2021/06/27 11:28:33;;;;;;;4.00;3.60;;;;;;;24.46;45.43;90738.34;4979233;28;20033;-86
2021/06/27 11:31:22;;;;;;;4.47;3.72;;;;;;;23.92;46.73;90738.78;4994469;28;20037;-89
2021/06/27 11:34:24;;;;;;;9.65;3.40;;;;;;;23.54;45.41;90739.22;4994443;28;20052;-88
2021/06/27 11:36:55;;;;;;;4.60;3.33;;;;;;;23.54;47.09;90736.56;4913838;29;20032;-88
2021/06/27 11:39:57;;;;;;;4.05;3.60;;;;;;;23.64;48.05;90738.25;4956877;28;20047;-89
2021/06/27 11:42:28;;;;;;;3.78;3.40;;;;;;;23.54;46.87;90733.88;5007360;28;20380;-87
2021/06/27 11:45:08;;;;;;;3.60;3.28;;;;;;;23.55;47.67;90740.69;4995997;28;20118;-88
2021/06/27 11:47:41;;;;;;;5.80;3.78;;;;;;;23.96;46.91;90736.78;5013580;28;20080;-88
2021/06/27 11:50:26;;;;;;;6.50;3.75;;;;;;;24.18;45.95;90737.06;4995867;28;20030;-88
2021/06/27 11:53:02;;;;;;;3.80;3.40;;;;;;;24.24;46.40;90735.38;4996092;28;20021;-88